createdAt,value
2023-02-28T00:01:16.856Z,3.05
2023-02-28T00:03:44.138Z,2.88
2023-02-28T00:06:11.518Z,2.67
2023-02-28T00:08:39.210Z,2.95
2023-02-28T00:11:13.998Z,2.58
2023-02-28T00:13:43.360Z,2.95
2023-02-28T00:16:12.522Z,2.35
2023-02-28T00:18:39.885Z,3.20
2023-02-28T00:21:07.545Z,2.97
2023-02-28T00:23:34.795Z,2.55
2023-02-28T00:26:02.110Z,2.75
2023-02-28T00:28:29.463Z,2.85
2023-02-28T00:30:58.220Z,3.28
2023-02-28T00:33:25.674Z,2.58
2023-02-28T00:35:53.124Z,2.97
2023-02-28T00:38:20.588Z,2.63
2023-02-28T00:40:47.848Z,2.75
2023-02-28T00:43:15.089Z,2.80
2023-02-28T00:45:42.363Z,2.15
2023-02-28T00:48:09.570Z,2.80
2023-02-28T00:50:36.716Z,2.53
2023-02-28T00:53:03.934Z,3.13
2023-02-28T00:55:31.082Z,2.35
2023-02-28T00:57:58.295Z,2.55
2023-02-28T01:00:26.186Z,2.53
2023-02-28T01:02:53.379Z,2.72
2023-02-28T01:05:20.692Z,2.63
2023-02-28T01:07:47.866Z,2.67
2023-02-28T01:10:15.155Z,2.72
2023-02-28T01:12:42.389Z,2.90
2023-02-28T01:15:12.195Z,2.22
2023-02-28T01:17:39.449Z,2.75
2023-02-28T01:20:07.869Z,2.15
2023-02-28T01:22:36.150Z,2.85
2023-02-28T01:25:03.341Z,3.03
2023-02-28T01:27:32.635Z,3.17
2023-02-28T01:29:59.915Z,2.25
2023-02-28T01:32:27.254Z,2.78
2023-02-28T01:34:54.559Z,2.88
2023-02-28T01:37:24.181Z,3.05
2023-02-28T01:39:51.418Z,2.40
2023-02-28T01:42:21.437Z,2.20
2023-02-28T01:44:59.730Z,2.35
2023-02-28T01:47:28.760Z,2.63
2023-02-28T01:49:58.312Z,3.78
2023-02-28T01:52:25.927Z,4.00
2023-02-28T01:54:57.368Z,2.70
2023-02-28T01:57:27.556Z,2.83
2023-02-28T01:59:54.773Z,2.47
2023-02-28T02:02:23.190Z,2.70
2023-02-28T02:04:55.847Z,2.10
2023-02-28T02:07:23.563Z,3.17
2023-02-28T02:09:50.835Z,3.03
2023-02-28T02:12:27.771Z,2.15
2023-02-28T02:14:58.254Z,2.75
2023-02-28T02:17:37.598Z,2.80
2023-02-28T02:20:07.532Z,3.25
2023-02-28T02:22:52.034Z,3.28
2023-02-28T02:25:39.034Z,2.45
2023-02-28T02:28:23.682Z,2.42
2023-02-28T02:30:50.915Z,3.42
2023-02-28T02:33:27.953Z,2.78
2023-02-28T02:36:08.401Z,2.78
2023-02-28T02:38:58.675Z,2.00
2023-02-28T02:41:36.382Z,3.17
2023-02-28T02:44:08.750Z,3.00
2023-02-28T02:46:38.938Z,2.42
2023-02-28T02:49:07.966Z,3.67
2023-02-28T02:51:37.064Z,2.78
2023-02-28T02:54:09.901Z,2.20
2023-02-28T02:56:37.718Z,3.03
2023-02-28T02:59:08.645Z,2.80
2023-02-28T03:01:36.769Z,2.65
2023-02-28T03:04:13.364Z,2.38
2023-02-28T03:06:40.745Z,2.33
2023-02-28T03:09:07.876Z,2.97
2023-02-28T03:11:36.804Z,2.42
2023-02-28T03:14:22.268Z,2.72
2023-02-28T03:16:50.081Z,2.53
2023-02-28T03:19:21.120Z,2.78
2023-02-28T03:21:51.298Z,3.05
2023-02-28T03:24:39.783Z,2.58
2023-02-28T03:27:10.576Z,2.20
2023-02-28T03:29:40.798Z,2.75
2023-02-28T03:32:15.528Z,2.42
2023-02-28T03:34:47.237Z,2.67
2023-02-28T03:37:17.813Z,2.75
2023-02-28T03:39:58.068Z,2.05
2023-02-28T03:42:35.668Z,3.05
2023-02-28T03:45:08.547Z,3.00
2023-02-28T03:47:38.925Z,1.92
2023-02-28T03:50:13.130Z,2.45
2023-02-28T03:52:45.995Z,2.42
2023-02-28T03:55:15.141Z,3.00
2023-02-28T03:57:57.526Z,1.85
2023-02-28T04:00:33.738Z,2.60
2023-02-28T04:03:01.031Z,2.38
2023-02-28T04:05:28.487Z,2.35
2023-02-28T04:07:55.572Z,2.13
2023-02-28T04:10:22.889Z,2.70
2023-02-28T04:12:50.112Z,1.65
2023-02-28T04:15:17.311Z,1.73
2023-02-28T04:17:44.516Z,2.85
2023-02-28T04:20:12.567Z,2.40
2023-02-28T04:22:39.717Z,3.03
2023-02-28T04:25:07.267Z,2.80
2023-02-28T04:27:34.514Z,2.28
2023-02-28T04:30:01.627Z,2.72
2023-02-28T04:32:28.948Z,2.15
2023-02-28T04:34:56.219Z,2.72
2023-02-28T04:37:28.699Z,2.05
2023-02-28T04:39:55.967Z,1.70
2023-02-28T04:42:23.139Z,2.60
2023-02-28T04:44:50.274Z,3.42
2023-02-28T04:47:17.484Z,2.67
2023-02-28T04:49:44.634Z,2.33
2023-02-28T04:52:12.049Z,2.78
2023-02-28T04:54:39.950Z,2.30
2023-02-28T04:57:07.255Z,2.40
2023-02-28T04:59:34.449Z,2.08
2023-02-28T05:02:04.857Z,3.35
2023-02-28T05:04:35.115Z,2.00
2023-02-28T05:07:02.747Z,1.95
2023-02-28T05:09:29.916Z,1.67
2023-02-28T05:11:57.731Z,1.95
2023-02-28T05:14:24.892Z,3.20
2023-02-28T05:16:51.991Z,2.88
2023-02-28T05:19:19.239Z,3.35
2023-02-28T05:21:54.462Z,2.55
2023-02-28T05:24:23.619Z,2.38
2023-02-28T05:26:52.890Z,2.80
2023-02-28T05:29:20.200Z,2.42
2023-02-28T05:31:47.499Z,1.75
2023-02-28T05:34:16.924Z,2.58
2023-02-28T05:36:44.370Z,2.00
2023-02-28T05:39:13.530Z,2.20
2023-02-28T05:41:41.764Z,1.95
2023-02-28T05:44:09.115Z,3.85
2023-02-28T05:46:36.312Z,2.35
2023-02-28T05:49:03.929Z,2.35
2023-02-28T05:51:31.689Z,2.58
2023-02-28T05:54:02.591Z,2.40
2023-02-28T05:56:30.296Z,2.60
2023-02-28T05:58:57.613Z,2.55
2023-02-28T06:01:36.072Z,2.60
2023-02-28T06:04:03.898Z,2.45
2023-02-28T06:06:31.138Z,1.90
2023-02-28T06:08:59.050Z,2.13
2023-02-28T06:11:28.500Z,1.83
2023-02-28T06:13:57.182Z,2.08
2023-02-28T06:16:24.747Z,3.38
2023-02-28T06:18:53.425Z,1.88
2023-02-28T06:21:20.563Z,2.30
2023-02-28T06:23:47.680Z,2.67
2023-02-28T06:26:14.951Z,2.40
2023-02-28T06:28:42.168Z,1.83
2023-02-28T06:31:10.652Z,2.83
2023-02-28T06:33:38.249Z,3.03
2023-02-28T06:36:06.153Z,2.35
2023-02-28T06:38:33.447Z,1.58
2023-02-28T06:41:01.071Z,3.78
2023-02-28T06:43:32.572Z,2.33
2023-02-28T06:46:00.508Z,2.45
2023-02-28T06:48:28.425Z,2.97
2023-02-28T06:51:25.295Z,2.53
2023-02-28T06:53:53.238Z,2.38
2023-02-28T06:56:21.319Z,3.10
2023-02-28T06:58:50.363Z,2.47
2023-02-28T07:01:18.060Z,2.47
2023-02-28T07:03:46.163Z,2.50
2023-02-28T07:06:13.722Z,2.30
2023-02-28T07:08:41.988Z,2.17
2023-02-28T07:11:09.390Z,2.38
2023-02-28T07:13:36.973Z,2.67
2023-02-28T07:16:05.895Z,2.25
2023-02-28T07:18:33.314Z,2.45
2023-02-28T07:21:02.986Z,2.38
2023-02-28T07:23:30.251Z,2.92
2023-02-28T07:25:57.704Z,3.22
2023-02-28T07:28:24.935Z,2.55
2023-02-28T07:30:52.381Z,2.55
2023-02-28T07:33:19.701Z,1.45
2023-02-28T07:35:47.027Z,2.25
2023-02-28T07:38:14.762Z,1.67
2023-02-28T07:40:42.034Z,2.38
2023-02-28T07:43:09.320Z,3.15
2023-02-28T07:45:36.668Z,2.67
2023-02-28T07:48:04.017Z,2.03
2023-02-28T07:50:31.802Z,2.70
2023-02-28T07:53:01.955Z,3.05
2023-02-28T07:55:29.224Z,2.20
2023-02-28T07:57:56.405Z,2.17
2023-02-28T08:00:24.169Z,2.35
2023-02-28T08:02:52.143Z,2.92
2023-02-28T08:05:22.059Z,2.78
2023-02-28T08:07:50.900Z,2.70
2023-02-28T08:10:18.230Z,1.88
2023-02-28T08:12:45.479Z,2.65
2023-02-28T08:15:12.816Z,3.00
2023-02-28T08:17:40.231Z,2.05
2023-02-28T08:20:08.274Z,1.95
2023-02-28T08:22:35.592Z,1.30
2023-02-28T08:25:02.966Z,2.42
2023-02-28T08:27:30.283Z,2.50
2023-02-28T08:29:57.509Z,2.17
2023-02-28T08:32:29.784Z,2.60
2023-02-28T08:34:57.691Z,2.03
2023-02-28T08:37:25.051Z,2.08
2023-02-28T08:39:55.942Z,1.30
2023-02-28T08:42:24.231Z,2.20
2023-02-28T08:44:51.451Z,1.58
2023-02-28T08:47:18.705Z,1.40
2023-02-28T08:49:45.986Z,2.22
2023-02-28T08:52:13.303Z,1.20
2023-02-28T08:54:40.554Z,0.80
2023-02-28T08:57:07.841Z,1.50
2023-02-28T08:59:35.162Z,2.00
2023-02-28T09:02:02.291Z,1.75
2023-02-28T09:04:31.910Z,1.75
2023-02-28T09:06:59.178Z,1.55
2023-02-28T09:09:26.600Z,1.90
2023-02-28T09:11:53.866Z,1.45
2023-02-28T09:14:21.050Z,1.50
2023-02-28T09:16:48.446Z,1.55
2023-02-28T09:19:15.841Z,1.75
2023-02-28T09:21:43.187Z,1.58
2023-02-28T09:24:12.548Z,2.33
2023-02-28T09:26:43.395Z,1.45
2023-02-28T09:29:17.708Z,1.35
2023-02-28T09:31:45.312Z,1.38
2023-02-28T09:34:12.627Z,1.42
2023-02-28T09:36:45.081Z,1.15
2023-02-28T09:39:15.393Z,2.03
2023-02-28T09:41:51.344Z,2.63
2023-02-28T09:44:22.888Z,1.88
2023-02-28T09:46:51.510Z,1.27
2023-02-28T09:49:20.802Z,1.30
2023-02-28T09:51:59.709Z,1.27
2023-02-28T09:54:30.147Z,1.25
2023-02-28T09:57:03.776Z,0.90
2023-02-28T09:59:41.319Z,1.30
2023-02-28T10:02:19.213Z,0.98
2023-02-28T10:04:53.510Z,0.93
2023-02-28T10:07:20.747Z,0.88
2023-02-28T10:09:49.862Z,1.10
2023-02-28T10:12:17.848Z,0.88
2023-02-28T10:14:47.401Z,1.23
2023-02-28T10:17:54.747Z,0.77
2023-02-28T10:20:30.872Z,0.80
2023-02-28T10:23:00.973Z,1.08
2023-02-28T10:25:30.059Z,0.60
2023-02-28T10:28:03.017Z,0.95
2023-02-28T10:30:30.268Z,0.82
2023-02-28T10:32:57.607Z,0.80
2023-02-28T10:35:26.614Z,1.10
2023-02-28T10:37:58.068Z,1.08
2023-02-28T10:40:25.290Z,0.85
2023-02-28T10:43:03.104Z,0.85
2023-02-28T10:45:32.849Z,0.98
2023-02-28T10:48:05.517Z,0.80
2023-02-28T10:50:46.897Z,0.77
2023-02-28T10:53:26.697Z,0.95
2023-02-28T10:56:00.289Z,1.30
2023-02-28T10:58:28.880Z,0.73
2023-02-28T11:00:56.429Z,0.90
2023-02-28T11:03:34.272Z,0.80
2023-02-28T11:06:07.092Z,1.13
2023-02-28T11:08:34.373Z,1.35
2023-02-28T11:11:06.043Z,1.52
2023-02-28T11:13:35.101Z,1.23
2023-02-28T11:16:10.626Z,0.98
2023-02-28T11:18:44.096Z,1.05
2023-02-28T11:21:17.844Z,0.70
2023-02-28T11:23:45.240Z,0.70
2023-02-28T11:26:12.735Z,0.95
2023-02-28T11:28:42.034Z,0.95
2023-02-28T11:31:15.432Z,0.80
2023-02-28T11:33:42.771Z,1.15
2023-02-28T11:36:25.604Z,1.42
2023-02-28T11:38:54.769Z,0.93
2023-02-28T11:41:41.487Z,1.45
2023-02-28T11:44:27.612Z,0.77
2023-02-28T11:46:58.129Z,1.10
2023-02-28T11:49:32.306Z,0.73
2023-02-28T11:52:17.557Z,1.02
2023-02-28T11:54:44.831Z,1.55
2023-02-28T11:57:27.291Z,0.98
2023-02-28T12:00:01.990Z,0.80
2023-02-28T12:02:38.841Z,0.65
2023-02-28T12:05:14.353Z,1.10
2023-02-28T12:07:51.471Z,0.98
2023-02-28T12:10:23.470Z,0.73
2023-02-28T12:13:05.730Z,1.23
2023-02-28T12:15:43.260Z,1.00
2023-02-28T12:18:10.483Z,1.13
2023-02-28T12:21:01.581Z,1.05
2023-02-28T12:23:56.727Z,1.15
2023-02-28T12:26:24.007Z,1.15
2023-02-28T12:28:53.461Z,0.70
2023-02-28T12:31:31.103Z,1.27
2023-02-28T12:34:02.235Z,0.90
2023-02-28T12:36:29.741Z,1.25
2023-02-28T12:39:06.598Z,0.90
2023-02-28T12:41:41.034Z,0.93
2023-02-28T12:44:14.077Z,0.70
2023-02-28T12:46:46.256Z,1.05
2023-02-28T12:49:17.365Z,1.00
2023-02-28T12:51:45.769Z,0.73
2023-02-28T12:54:23.132Z,1.20
2023-02-28T12:57:01.140Z,1.83
2023-02-28T12:59:37.945Z,1.10
2023-02-28T13:02:12.137Z,1.08
2023-02-28T13:04:48.483Z,0.85
2023-02-28T13:07:15.759Z,1.02
2023-02-28T13:09:43.097Z,1.50
2023-02-28T13:12:17.666Z,1.10
2023-02-28T13:14:45.164Z,1.70
2023-02-28T13:17:14.056Z,1.33
2023-02-28T13:19:49.532Z,1.10
2023-02-28T13:22:18.616Z,0.70
2023-02-28T13:24:47.792Z,1.23
2023-02-28T13:27:17.828Z,0.85
2023-02-28T13:29:45.667Z,1.13
2023-02-28T13:32:12.834Z,1.40
2023-02-28T13:34:41.303Z,1.27
2023-02-28T13:37:24.013Z,1.17
2023-02-28T13:39:51.325Z,1.05
2023-02-28T13:42:38.438Z,1.10
2023-02-28T13:45:05.729Z,1.48
2023-02-28T13:47:52.084Z,1.40
2023-02-28T13:50:30.231Z,1.92
2023-02-28T13:53:09.500Z,1.70
2023-02-28T13:55:55.496Z,0.70
2023-02-28T13:58:29.693Z,1.38
2023-02-28T14:01:02.810Z,1.55
2023-02-28T14:03:45.870Z,1.60
2023-02-28T14:06:39.778Z,1.07
2023-02-28T14:09:13.290Z,1.05
2023-02-28T14:11:41.796Z,1.10
2023-02-28T14:14:09.843Z,1.00
2023-02-28T14:16:45.828Z,1.55
2023-02-28T14:19:15.250Z,1.23
2023-02-28T14:21:50.413Z,1.15
2023-02-28T14:24:36.146Z,1.15
2023-02-28T14:27:26.116Z,1.10
2023-02-28T14:30:11.645Z,1.10
2023-02-28T14:32:57.544Z,1.63
2023-02-28T14:35:27.794Z,1.70
2023-02-28T14:37:56.036Z,1.55
2023-02-28T14:40:27.048Z,1.77
2023-02-28T14:43:05.431Z,1.30
2023-02-28T14:45:34.148Z,1.90
2023-02-28T14:48:02.733Z,1.42
2023-02-28T14:50:36.171Z,1.67
2023-02-28T14:55:32.260Z,1.08
2023-02-28T14:58:00.430Z,1.15
2023-02-28T15:00:39.523Z,2.00
2023-02-28T15:03:31.310Z,1.35
2023-02-28T15:06:03.238Z,1.45
2023-02-28T15:08:32.718Z,1.65
2023-02-28T15:10:59.865Z,1.15
2023-02-28T15:13:32.130Z,1.77
2023-02-28T15:16:05.181Z,1.90
2023-02-28T15:18:51.190Z,1.90
2023-02-28T15:21:19.921Z,1.30
2023-02-28T15:23:53.620Z,1.58
2023-02-28T15:26:22.590Z,1.60
2023-02-28T15:28:56.948Z,1.30
2023-02-28T15:31:39.168Z,1.83
2023-02-28T15:34:21.072Z,1.77
2023-02-28T15:36:49.093Z,1.45
2023-02-28T15:39:24.136Z,1.38
2023-02-28T15:41:51.495Z,1.63
2023-02-28T15:44:27.939Z,1.48
2023-02-28T15:46:56.988Z,1.75
2023-02-28T15:49:25.055Z,1.80
2023-02-28T15:51:53.458Z,2.03
2023-02-28T15:54:25.525Z,2.00
2023-02-28T15:56:54.268Z,1.67
2023-02-28T15:59:23.084Z,1.50
2023-02-28T16:02:04.205Z,1.17
2023-02-28T16:04:32.571Z,2.17
2023-02-28T16:06:59.801Z,1.10
2023-02-28T16:09:28.370Z,1.00
2023-02-28T16:11:58.005Z,1.85
2023-02-28T16:14:28.398Z,1.27
2023-02-28T16:16:56.753Z,1.58
2023-02-28T16:19:24.773Z,1.65
2023-02-28T16:21:52.195Z,2.00
2023-02-28T16:24:19.428Z,1.70
2023-02-28T16:26:49.060Z,1.20
2023-02-28T16:29:25.335Z,1.65
2023-02-28T16:31:52.598Z,1.50
2023-02-28T16:34:19.868Z,1.20
2023-02-28T16:36:51.087Z,1.73
2023-02-28T16:39:18.469Z,1.30
2023-02-28T16:41:46.900Z,1.58
2023-02-28T16:44:29.601Z,1.90
2023-02-28T16:46:56.930Z,1.90
2023-02-28T16:49:24.200Z,1.63
2023-02-28T16:51:51.518Z,1.67
2023-02-28T16:54:18.739Z,1.95
2023-02-28T16:56:47.706Z,1.95
2023-02-28T16:59:16.663Z,1.50
2023-02-28T17:01:44.136Z,1.23
2023-02-28T17:04:13.387Z,1.40
2023-02-28T17:06:41.005Z,1.45
2023-02-28T17:09:15.141Z,1.77
2023-02-28T17:11:42.440Z,1.50
2023-02-28T17:14:09.648Z,1.67
2023-02-28T17:16:40.727Z,2.17
2023-02-28T17:19:08.779Z,1.85
2023-02-28T17:21:36.003Z,1.73
2023-02-28T17:24:03.326Z,2.28
2023-02-28T17:26:31.000Z,2.20
2023-02-28T17:28:59.009Z,1.90
2023-02-28T17:31:27.058Z,1.60
2023-02-28T17:33:57.976Z,5.20
2023-02-28T17:36:26.972Z,2.55
2023-02-28T17:38:56.030Z,1.67
2023-02-28T17:41:23.637Z,1.90
2023-02-28T17:43:51.494Z,2.67
2023-02-28T17:46:22.470Z,2.08
2023-02-28T17:48:50.213Z,1.85
2023-02-28T17:51:18.133Z,1.98
2023-02-28T17:53:45.582Z,2.28
2023-02-28T17:56:17.585Z,2.40
2023-02-28T17:58:45.055Z,2.22
2023-02-28T18:01:12.965Z,2.28
2023-02-28T18:03:40.880Z,2.30
2023-02-28T18:06:08.382Z,2.53
2023-02-28T18:08:36.488Z,2.83
2023-02-28T18:11:03.760Z,2.60
2023-02-28T18:13:31.201Z,2.60
2023-02-28T18:15:58.370Z,2.13
2023-02-28T18:18:25.642Z,2.78
2023-02-28T18:20:53.997Z,2.35
2023-02-28T18:23:21.558Z,1.52
2023-02-28T18:25:48.785Z,1.90
2023-02-28T18:28:15.981Z,2.90
2023-02-28T18:30:43.120Z,2.00
2023-02-28T18:33:10.383Z,2.28
2023-02-28T18:35:39.002Z,2.53
2023-02-28T18:38:12.137Z,2.47
2023-02-28T18:40:39.455Z,1.90
2023-02-28T18:43:06.877Z,2.17
2023-02-28T18:45:36.101Z,2.80
2023-02-28T18:48:03.362Z,2.28
2023-02-28T18:50:30.762Z,2.03
2023-02-28T18:52:59.072Z,2.55
2023-02-28T18:55:27.770Z,2.95
2023-02-28T18:57:55.081Z,2.03
2023-02-28T19:00:22.817Z,2.58
2023-02-28T19:02:50.711Z,3.13
2023-02-28T19:05:18.144Z,3.15
2023-02-28T19:07:46.303Z,2.50
2023-02-28T19:10:13.588Z,2.55
2023-02-28T19:12:44.222Z,2.55
2023-02-28T19:15:12.442Z,2.38
2023-02-28T19:17:40.086Z,2.45
2023-02-28T19:20:08.002Z,2.47
2023-02-28T19:22:35.746Z,3.15
2023-02-28T19:25:03.274Z,1.98
2023-02-28T19:27:31.132Z,3.15
2023-02-28T19:29:59.222Z,2.17
2023-02-28T19:32:27.433Z,3.15
2023-02-28T19:34:54.688Z,2.65
2023-02-28T19:37:22.140Z,2.85
2023-02-28T19:39:49.468Z,2.75
2023-02-28T19:42:17.766Z,4.03
2023-02-28T19:44:45.528Z,2.28
2023-02-28T19:47:13.451Z,2.90
2023-02-28T19:49:40.795Z,3.03
2023-02-28T19:52:11.773Z,2.80
2023-02-28T19:54:42.448Z,2.72
2023-02-28T19:57:09.679Z,2.88
2023-02-28T19:59:39.704Z,2.30
2023-02-28T20:02:13.556Z,2.70
2023-02-28T20:04:41.156Z,3.38
2023-02-28T20:07:08.471Z,3.33
2023-02-28T20:09:35.722Z,3.97
2023-02-28T20:12:09.235Z,2.72
2023-02-28T20:14:42.346Z,2.70
2023-02-28T20:17:09.681Z,2.40
2023-02-28T20:19:37.038Z,2.80
2023-02-28T20:22:04.393Z,3.88
2023-02-28T20:24:31.814Z,2.92
2023-02-28T20:26:59.110Z,4.55
2023-02-28T20:29:26.520Z,3.72
2023-02-28T20:31:54.186Z,2.97
2023-02-28T20:34:23.146Z,3.65
2023-02-28T20:36:50.549Z,3.53
2023-02-28T20:39:18.085Z,2.80
2023-02-28T20:41:45.322Z,3.97
2023-02-28T20:44:13.411Z,3.05
2023-02-28T20:46:41.515Z,2.83
2023-02-28T20:49:08.833Z,2.92
2023-02-28T20:51:39.826Z,3.30
2023-02-28T20:54:11.687Z,2.97
2023-02-28T20:56:39.206Z,3.47
2023-02-28T20:59:06.530Z,3.65
2023-02-28T21:01:34.077Z,2.78
2023-02-28T21:04:02.683Z,4.00
2023-02-28T21:06:32.040Z,3.40
2023-02-28T21:08:59.586Z,2.53
2023-02-28T21:11:28.545Z,2.60
2023-02-28T21:13:56.307Z,3.05
2023-02-28T21:16:25.282Z,3.63
2023-02-28T21:18:55.494Z,2.60
2023-02-28T21:21:26.649Z,3.65
2023-02-28T21:23:53.912Z,2.83
2023-02-28T21:26:22.607Z,3.30
2023-02-28T21:28:53.595Z,3.05
2023-02-28T21:31:22.201Z,2.58
2023-02-28T21:33:49.528Z,2.50
2023-02-28T21:36:18.456Z,3.53
2023-02-28T21:38:46.475Z,2.38
2023-02-28T21:41:15.273Z,4.13
2023-02-28T21:43:42.906Z,3.72
2023-02-28T21:46:11.654Z,2.95
2023-02-28T21:48:39.337Z,3.63
2023-02-28T21:51:08.320Z,3.97
2023-02-28T21:53:37.767Z,3.05
2023-02-28T21:56:06.547Z,3.03
2023-02-28T21:58:33.894Z,3.50
2023-02-28T22:01:06.260Z,3.55
2023-02-28T22:03:34.572Z,3.22
2023-02-28T22:06:01.985Z,3.25
2023-02-28T22:08:29.415Z,3.53
2023-02-28T22:10:56.837Z,3.50
2023-02-28T22:13:24.131Z,3.38
2023-02-28T22:15:53.680Z,3.10
2023-02-28T22:18:20.981Z,3.10
2023-02-28T22:20:54.276Z,3.33
2023-02-28T22:23:21.679Z,3.28
2023-02-28T22:25:49.052Z,3.72
2023-02-28T22:28:16.411Z,2.70
2023-02-28T22:30:43.626Z,3.38
2023-02-28T22:33:11.063Z,3.10
2023-02-28T22:35:38.225Z,3.08
2023-02-28T22:38:05.473Z,3.05
2023-02-28T22:40:34.779Z,2.47
2023-02-28T22:43:02.713Z,3.72
2023-02-28T22:45:29.853Z,3.85
2023-02-28T22:47:57.211Z,3.05
2023-02-28T22:50:24.355Z,3.22
2023-02-28T22:52:52.034Z,3.33
2023-02-28T22:55:19.412Z,3.20
2023-02-28T22:57:46.570Z,3.28
2023-02-28T23:00:15.447Z,2.55
2023-02-28T23:02:46.322Z,2.28
2023-02-28T23:05:13.964Z,1.80
2023-02-28T23:07:42.255Z,3.05
2023-02-28T23:10:11.866Z,3.50
2023-02-28T23:12:50.151Z,3.90
2023-02-28T23:15:18.573Z,2.70
2023-02-28T23:17:46.666Z,2.83
2023-02-28T23:20:18.916Z,2.67
2023-02-28T23:22:50.407Z,2.72
2023-02-28T23:25:21.849Z,3.50
2023-02-28T23:27:49.060Z,2.50
2023-02-28T23:30:16.707Z,3.15
2023-02-28T23:32:44.052Z,2.50
2023-02-28T23:35:12.064Z,2.33
2023-02-28T23:37:40.307Z,2.30
2023-02-28T23:40:08.552Z,2.50
2023-02-28T23:42:35.957Z,2.88
2023-02-28T23:45:03.643Z,2.78
2023-02-28T23:47:32.359Z,2.55
2023-02-28T23:49:59.622Z,2.70
2023-02-28T23:52:26.829Z,2.33
2023-02-28T23:54:54.113Z,3.53
2023-02-28T23:57:21.417Z,2.55
2023-02-28T23:59:48.693Z,2.72
